Regina International Airport
CYQR : now visible

Airfield :











YOU CAN JOIN US ON...

 
LOGIN :

Register | Disclaimer

   EN    FR    IT 

 









Legend :    VFR   Marginal VFR   IFR   Intensive IFR   Very Intensive IFR
Visi :
Ceiling :
>= 8 km
>= 3000ft
5 to 8 km
1000 to 3000 ft
1500m to 5 km
500 to 1000 ft
800 to 1500m
200 to 500 ft
< 800m
< 200 ft
Symbols :   Thunderstorms  Fog  Heavy snow  Heavy precipitations  Wind > 20 kt






- Airport Elevation : 1894 ft
- IATA code : YQR


CYQR - Regina International

CURRENT METAR :
  • 182300Z 20005KT 15SM FEW064 FEW140 FEW300 31/15 A3002 RMK CU1AC1CI1 CU TR AC TR SLP168 DENSITY ALT 4000FT

EXPIRED METARs :
  • 182200Z 21006KT 180V310 12SM FEW064 FEW160 FEW300 31/14 A3003 RMK CU1AC1CI1 CU TR AC TR CI TR SLP170 DENSITY ALT 4000FT
  • 182100Z 26005KT 180V300 15SM FEW170 FEW290 30/15 A3003 RMK AC1CI1 AC TR CI TR SLP171 DENSITY ALT 3900FT
  • 182000Z 20004KT 160V250 12SM FEW280 29/14 A3005 RMK CI1 CI TR CB TOP DIST W SLP178 DENSITY ALT 3800FT
  • 181900Z 17005KT 070V200 12SM FEW200 FEW280 27/17 A3006 RMK CI1CI1 CI TR CI TR HZ SLP182 DENSITY ALT 3600FT

TAF TAF CYQR
Valid from the 19 at 00:00 until the 20 at 00:00 UTC


182340Z 1900/1924 20005KT P6SM FEW060 FEW140 FEW300
FM190400 10008KT P6SM FEW100
FM191200 12005KT P6SM SCT090
TEMPO 1912/1916 P6SM TSRA SCT090CB
FM192200 14005KT P6SM SCT080
PROB30 1922/1924 VRB15G25KT 5SM TSRA BKN080CB RMK NXT FCST BY 190600Z
CZWG FIR / North America



MET'MAP, your aeronautical weather chart ! - Copyright ORBIFLY December 2007 - Disclaimer

ORBIFLY MET'MAP TEAM :

Programming & Development : Alexandra Zaïnal
Original concept : Baudouin d'Aumeries
Technical & hardware support : Manuel Goepfert
Assistance : Marc-Olivier Méhu




SOURCES & CREDITS :

   NOAA       Earth
Advisory